sensor_id;sensor_type;location;lat;lon;timestamp;P1;durP1;ratioP1;P2;durP2;ratioP2
46411;SDS011;32113;42.012;24.870;2023-04-10T00:01:31;7.28;;;6.10;;
46411;SDS011;32113;42.012;24.870;2023-04-10T00:03:59;6.78;;;5.65;;
46411;SDS011;32113;42.012;24.870;2023-04-10T00:06:25;7.25;;;5.95;;
46411;SDS011;32113;42.012;24.870;2023-04-10T00:08:52;6.88;;;5.53;;
46411;SDS011;32113;42.012;24.870;2023-04-10T00:11:17;8.77;;;6.15;;
46411;SDS011;32113;42.012;24.870;2023-04-10T00:13:43;7.03;;;5.80;;
46411;SDS011;32113;42.012;24.870;2023-04-10T00:16:08;6.90;;;5.65;;
46411;SDS011;32113;42.012;24.870;2023-04-10T00:18:33;7.28;;;5.78;;
46411;SDS011;32113;42.012;24.870;2023-04-10T00:20:59;6.60;;;5.60;;
46411;SDS011;32113;42.012;24.870;2023-04-10T00:23:24;9.32;;;6.38;;
46411;SDS011;32113;42.012;24.870;2023-04-10T00:25:50;6.85;;;5.82;;
46411;SDS011;32113;42.012;24.870;2023-04-10T00:28:15;8.68;;;5.57;;
46411;SDS011;32113;42.012;24.870;2023-04-10T00:30:41;7.28;;;5.72;;
46411;SDS011;32113;42.012;24.870;2023-04-10T00:33:06;11.30;;;5.57;;
46411;SDS011;32113;42.012;24.870;2023-04-10T00:35:32;6.95;;;5.78;;
46411;SDS011;32113;42.012;24.870;2023-04-10T00:37:57;6.07;;;5.38;;
46411;SDS011;32113;42.012;24.870;2023-04-10T00:40:23;7.78;;;5.88;;
46411;SDS011;32113;42.012;24.870;2023-04-10T00:42:48;8.65;;;6.15;;
46411;SDS011;32113;42.012;24.870;2023-04-10T00:45:14;7.28;;;6.03;;
46411;SDS011;32113;42.012;24.870;2023-04-10T00:47:39;7.63;;;5.53;;
46411;SDS011;32113;42.012;24.870;2023-04-10T00:50:05;10.00;;;6.07;;
46411;SDS011;32113;42.012;24.870;2023-04-10T00:52:31;7.50;;;5.35;;
46411;SDS011;32113;42.012;24.870;2023-04-10T00:54:56;7.72;;;6.35;;
46411;SDS011;32113;42.012;24.870;2023-04-10T00:57:22;8.00;;;6.00;;
46411;SDS011;32113;42.012;24.870;2023-04-10T00:59:48;7.60;;;5.70;;
46411;SDS011;32113;42.012;24.870;2023-04-10T01:02:16;6.70;;;5.68;;
46411;SDS011;32113;42.012;24.870;2023-04-10T01:04:41;8.07;;;6.50;;
46411;SDS011;32113;42.012;24.870;2023-04-10T01:09:58;7.40;;;5.78;;
46411;SDS011;32113;42.012;24.870;2023-04-10T01:15:47;9.25;;;5.75;;
46411;SDS011;32113;42.012;24.870;2023-04-10T01:18:52;8.10;;;5.90;;
46411;SDS011;32113;42.012;24.870;2023-04-10T01:21:21;7.30;;;5.93;;
46411;SDS011;32113;42.012;24.870;2023-04-10T01:26:46;8.27;;;5.90;;
46411;SDS011;32113;42.012;24.870;2023-04-10T01:29:20;7.50;;;5.88;;
46411;SDS011;32113;42.012;24.870;2023-04-10T01:31:52;7.78;;;5.85;;
46411;SDS011;32113;42.012;24.870;2023-04-10T01:34:27;7.57;;;6.07;;
46411;SDS011;32113;42.012;24.870;2023-04-10T01:37:01;7.18;;;5.95;;
46411;SDS011;32113;42.012;24.870;2023-04-10T01:39:29;8.57;;;5.97;;
46411;SDS011;32113;42.012;24.870;2023-04-10T01:42:00;7.40;;;5.70;;
46411;SDS011;32113;42.012;24.870;2023-04-10T01:44:27;8.98;;;6.22;;
46411;SDS011;32113;42.012;24.870;2023-04-10T01:46:55;7.85;;;5.57;;
46411;SDS011;32113;42.012;24.870;2023-04-10T01:49:22;6.60;;;5.90;;
46411;SDS011;32113;42.012;24.870;2023-04-10T01:54:16;8.40;;;5.90;;
46411;SDS011;32113;42.012;24.870;2023-04-10T01:56:42;6.38;;;5.35;;
46411;SDS011;32113;42.012;24.870;2023-04-10T01:59:08;8.50;;;5.93;;
46411;SDS011;32113;42.012;24.870;2023-04-10T02:01:33;7.00;;;5.80;;
46411;SDS011;32113;42.012;24.870;2023-04-10T02:03:59;8.57;;;6.60;;
46411;SDS011;32113;42.012;24.870;2023-04-10T02:11:38;7.97;;;5.60;;
46411;SDS011;32113;42.012;24.870;2023-04-10T02:14:09;7.97;;;5.80;;
46411;SDS011;32113;42.012;24.870;2023-04-10T02:16:37;6.60;;;5.35;;
46411;SDS011;32113;42.012;24.870;2023-04-10T02:19:03;6.05;;;5.38;;
46411;SDS011;32113;42.012;24.870;2023-04-10T02:21:31;6.93;;;5.53;;
46411;SDS011;32113;42.012;24.870;2023-04-10T02:23:57;7.38;;;6.25;;
46411;SDS011;32113;42.012;24.870;2023-04-10T02:26:24;7.72;;;5.75;;
46411;SDS011;32113;42.012;24.870;2023-04-10T02:28:49;6.13;;;5.20;;
46411;SDS011;32113;42.012;24.870;2023-04-10T02:31:15;8.05;;;6.30;;
46411;SDS011;32113;42.012;24.870;2023-04-10T02:33:40;15.75;;;5.93;;
46411;SDS011;32113;42.012;24.870;2023-04-10T02:36:06;6.95;;;5.65;;
46411;SDS011;32113;42.012;24.870;2023-04-10T02:38:32;11.73;;;5.75;;
46411;SDS011;32113;42.012;24.870;2023-04-10T02:40:57;8.05;;;5.95;;
46411;SDS011;32113;42.012;24.870;2023-04-10T02:43:22;9.13;;;6.45;;
46411;SDS011;32113;42.012;24.870;2023-04-10T02:45:48;8.50;;;6.07;;
46411;SDS011;32113;42.012;24.870;2023-04-10T02:48:13;7.10;;;5.60;;
46411;SDS011;32113;42.012;24.870;2023-04-10T02:50:39;9.07;;;6.30;;
46411;SDS011;32113;42.012;24.870;2023-04-10T02:53:09;9.65;;;5.82;;
46411;SDS011;32113;42.012;24.870;2023-04-10T02:55:36;8.85;;;6.45;;
46411;SDS011;32113;42.012;24.870;2023-04-10T02:58:01;9.35;;;5.97;;
46411;SDS011;32113;42.012;24.870;2023-04-10T03:00:26;7.32;;;6.30;;
46411;SDS011;32113;42.012;24.870;2023-04-10T03:02:53;7.30;;;6.03;;
46411;SDS011;32113;42.012;24.870;2023-04-10T03:05:18;7.05;;;5.82;;
46411;SDS011;32113;42.012;24.870;2023-04-10T03:07:43;5.97;;;5.25;;
46411;SDS011;32113;42.012;24.870;2023-04-10T03:10:09;7.28;;;5.38;;
46411;SDS011;32113;42.012;24.870;2023-04-10T03:12:34;7.35;;;5.63;;
46411;SDS011;32113;42.012;24.870;2023-04-10T03:15:00;11.10;;;5.30;;
46411;SDS011;32113;42.012;24.870;2023-04-10T03:17:25;12.10;;;5.93;;
46411;SDS011;32113;42.012;24.870;2023-04-10T03:19:51;7.15;;;6.07;;
46411;SDS011;32113;42.012;24.870;2023-04-10T03:22:16;10.38;;;5.55;;
46411;SDS011;32113;42.012;24.870;2023-04-10T03:24:41;8.32;;;5.50;;
46411;SDS011;32113;42.012;24.870;2023-04-10T03:27:07;6.95;;;5.32;;
46411;SDS011;32113;42.012;24.870;2023-04-10T03:29:32;8.05;;;5.80;;
46411;SDS011;32113;42.012;24.870;2023-04-10T03:31:57;7.63;;;5.30;;
46411;SDS011;32113;42.012;24.870;2023-04-10T03:34:23;7.07;;;5.68;;
46411;SDS011;32113;42.012;24.870;2023-04-10T03:36:48;8.98;;;5.75;;
46411;SDS011;32113;42.012;24.870;2023-04-10T03:39:14;7.55;;;5.43;;
46411;SDS011;32113;42.012;24.870;2023-04-10T03:41:39;8.50;;;5.70;;
46411;SDS011;32113;42.012;24.870;2023-04-10T03:44:04;7.30;;;5.80;;
46411;SDS011;32113;42.012;24.870;2023-04-10T03:46:30;7.85;;;5.63;;
46411;SDS011;32113;42.012;24.870;2023-04-10T03:48:55;8.20;;;5.63;;
46411;SDS011;32113;42.012;24.870;2023-04-10T03:51:20;7.30;;;5.90;;
46411;SDS011;32113;42.012;24.870;2023-04-10T03:53:48;7.80;;;5.97;;
46411;SDS011;32113;42.012;24.870;2023-04-10T03:56:14;8.30;;;5.97;;
46411;SDS011;32113;42.012;24.870;2023-04-10T03:58:40;8.10;;;6.10;;
46411;SDS011;32113;42.012;24.870;2023-04-10T04:01:05;9.50;;;5.63;;
46411;SDS011;32113;42.012;24.870;2023-04-10T04:03:31;10.77;;;6.60;;
46411;SDS011;32113;42.012;24.870;2023-04-10T04:05:57;10.25;;;6.10;;
46411;SDS011;32113;42.012;24.870;2023-04-10T04:08:22;9.02;;;6.43;;
46411;SDS011;32113;42.012;24.870;2023-04-10T04:10:47;8.85;;;5.97;;
46411;SDS011;32113;42.012;24.870;2023-04-10T04:13:13;10.35;;;6.65;;
46411;SDS011;32113;42.012;24.870;2023-04-10T04:15:38;8.80;;;6.30;;
46411;SDS011;32113;42.012;24.870;2023-04-10T04:18:04;8.32;;;5.80;;
46411;SDS011;32113;42.012;24.870;2023-04-10T04:20:30;10.45;;;6.05;;
46411;SDS011;32113;42.012;24.870;2023-04-10T04:22:55;9.10;;;5.43;;
46411;SDS011;32113;42.012;24.870;2023-04-10T04:25:21;7.65;;;5.53;;
46411;SDS011;32113;42.012;24.870;2023-04-10T04:27:46;10.50;;;5.38;;
46411;SDS011;32113;42.012;24.870;2023-04-10T04:30:11;7.15;;;5.63;;
46411;SDS011;32113;42.012;24.870;2023-04-10T04:32:37;6.28;;;5.40;;
46411;SDS011;32113;42.012;24.870;2023-04-10T04:35:02;7.15;;;5.43;;
46411;SDS011;32113;42.012;24.870;2023-04-10T04:37:28;6.75;;;5.57;;
46411;SDS011;32113;42.012;24.870;2023-04-10T04:39:53;7.75;;;5.70;;
46411;SDS011;32113;42.012;24.870;2023-04-10T04:42:19;7.50;;;5.22;;
46411;SDS011;32113;42.012;24.870;2023-04-10T04:44:44;9.45;;;5.63;;
46411;SDS011;32113;42.012;24.870;2023-04-10T04:47:09;7.00;;;5.32;;
46411;SDS011;32113;42.012;24.870;2023-04-10T04:49:35;9.52;;;6.38;;
46411;SDS011;32113;42.012;24.870;2023-04-10T04:52:01;6.85;;;5.68;;
46411;SDS011;32113;42.012;24.870;2023-04-10T04:54:26;9.13;;;6.72;;
46411;SDS011;32113;42.012;24.870;2023-04-10T04:56:52;8.68;;;5.85;;
46411;SDS011;32113;42.012;24.870;2023-04-10T04:59:17;7.70;;;5.57;;
46411;SDS011;32113;42.012;24.870;2023-04-10T05:01:42;9.05;;;6.75;;
46411;SDS011;32113;42.012;24.870;2023-04-10T05:04:08;9.38;;;5.80;;
46411;SDS011;32113;42.012;24.870;2023-04-10T05:06:33;8.10;;;5.93;;
46411;SDS011;32113;42.012;24.870;2023-04-10T05:08:59;7.63;;;5.50;;
46411;SDS011;32113;42.012;24.870;2023-04-10T05:11:25;10.00;;;5.75;;
46411;SDS011;32113;42.012;24.870;2023-04-10T05:13:50;15.00;;;6.55;;
46411;SDS011;32113;42.012;24.870;2023-04-10T05:16:15;9.90;;;7.00;;
46411;SDS011;32113;42.012;24.870;2023-04-10T05:18:41;9.95;;;4.93;;
46411;SDS011;32113;42.012;24.870;2023-04-10T05:21:06;6.72;;;5.18;;
46411;SDS011;32113;42.012;24.870;2023-04-10T05:23:32;6.85;;;4.90;;
46411;SDS011;32113;42.012;24.870;2023-04-10T05:25:57;7.50;;;4.82;;
46411;SDS011;32113;42.012;24.870;2023-04-10T05:28:23;11.43;;;5.70;;
46411;SDS011;32113;42.012;24.870;2023-04-10T05:30:48;7.07;;;5.25;;
46411;SDS011;32113;42.012;24.870;2023-04-10T05:33:14;8.07;;;5.53;;
46411;SDS011;32113;42.012;24.870;2023-04-10T05:35:39;6.90;;;4.85;;
46411;SDS011;32113;42.012;24.870;2023-04-10T05:38:05;8.00;;;5.88;;
46411;SDS011;32113;42.012;24.870;2023-04-10T05:40:30;6.00;;;5.20;;
46411;SDS011;32113;42.012;24.870;2023-04-10T05:42:56;7.22;;;5.18;;
46411;SDS011;32113;42.012;24.870;2023-04-10T05:45:21;5.20;;;4.40;;
46411;SDS011;32113;42.012;24.870;2023-04-10T05:47:47;7.60;;;4.95;;
46411;SDS011;32113;42.012;24.870;2023-04-10T05:50:12;6.53;;;4.70;;
46411;SDS011;32113;42.012;24.870;2023-04-10T05:52:38;6.65;;;4.72;;
46411;SDS011;32113;42.012;24.870;2023-04-10T05:55:03;8.52;;;4.82;;
46411;SDS011;32113;42.012;24.870;2023-04-10T05:57:30;9.35;;;4.72;;
46411;SDS011;32113;42.012;24.870;2023-04-10T05:59:55;6.47;;;4.78;;
46411;SDS011;32113;42.012;24.870;2023-04-10T06:02:21;7.15;;;4.30;;
46411;SDS011;32113;42.012;24.870;2023-04-10T06:04:46;7.07;;;5.32;;
46411;SDS011;32113;42.012;24.870;2023-04-10T06:07:12;6.38;;;4.75;;
46411;SDS011;32113;42.012;24.870;2023-04-10T06:09:37;5.40;;;4.60;;
46411;SDS011;32113;42.012;24.870;2023-04-10T06:12:03;10.15;;;4.65;;
46411;SDS011;32113;42.012;24.870;2023-04-10T06:14:28;8.98;;;4.53;;
46411;SDS011;32113;42.012;24.870;2023-04-10T06:16:53;8.55;;;4.75;;
46411;SDS011;32113;42.012;24.870;2023-04-10T06:19:19;6.45;;;5.18;;
46411;SDS011;32113;42.012;24.870;2023-04-10T06:21:45;6.63;;;4.75;;
46411;SDS011;32113;42.012;24.870;2023-04-10T06:24:10;6.90;;;4.82;;
46411;SDS011;32113;42.012;24.870;2023-04-10T06:26:36;8.95;;;4.63;;
46411;SDS011;32113;42.012;24.870;2023-04-10T06:29:02;9.40;;;4.97;;
46411;SDS011;32113;42.012;24.870;2023-04-10T06:31:27;8.60;;;5.10;;
46411;SDS011;32113;42.012;24.870;2023-04-10T06:33:53;6.72;;;4.90;;
46411;SDS011;32113;42.012;24.870;2023-04-10T06:36:18;13.95;;;5.22;;
46411;SDS011;32113;42.012;24.870;2023-04-10T06:38:43;10.60;;;6.28;;
46411;SDS011;32113;42.012;24.870;2023-04-10T06:41:09;13.07;;;6.80;;
46411;SDS011;32113;42.012;24.870;2023-04-10T06:43:35;13.30;;;6.82;;
46411;SDS011;32113;42.012;24.870;2023-04-10T06:46:03;18.15;;;7.78;;
46411;SDS011;32113;42.012;24.870;2023-04-10T06:48:29;14.20;;;7.80;;
46411;SDS011;32113;42.012;24.870;2023-04-10T06:50:55;20.40;;;9.07;;
46411;SDS011;32113;42.012;24.870;2023-04-10T06:53:20;18.27;;;9.38;;
46411;SDS011;32113;42.012;24.870;2023-04-10T06:55:46;17.73;;;9.73;;
46411;SDS011;32113;42.012;24.870;2023-04-10T06:58:11;10.95;;;7.93;;
46411;SDS011;32113;42.012;24.870;2023-04-10T07:00:37;11.57;;;7.95;;
46411;SDS011;32113;42.012;24.870;2023-04-10T07:03:02;12.75;;;7.30;;
46411;SDS011;32113;42.012;24.870;2023-04-10T07:05:28;8.82;;;6.10;;
46411;SDS011;32113;42.012;24.870;2023-04-10T07:07:53;7.03;;;4.95;;
46411;SDS011;32113;42.012;24.870;2023-04-10T07:10:18;10.63;;;4.78;;
46411;SDS011;32113;42.012;24.870;2023-04-10T07:12:44;11.85;;;5.10;;
46411;SDS011;32113;42.012;24.870;2023-04-10T07:15:09;9.15;;;5.55;;
46411;SDS011;32113;42.012;24.870;2023-04-10T07:17:36;9.38;;;5.57;;
46411;SDS011;32113;42.012;24.870;2023-04-10T07:20:02;9.90;;;5.68;;
46411;SDS011;32113;42.012;24.870;2023-04-10T07:22:28;9.30;;;6.03;;
46411;SDS011;32113;42.012;24.870;2023-04-10T07:24:53;8.77;;;6.05;;
46411;SDS011;32113;42.012;24.870;2023-04-10T07:27:18;9.32;;;6.05;;
46411;SDS011;32113;42.012;24.870;2023-04-10T07:29:44;6.93;;;5.07;;
46411;SDS011;32113;42.012;24.870;2023-04-10T07:32:10;9.13;;;5.00;;
46411;SDS011;32113;42.012;24.870;2023-04-10T07:34:36;16.02;;;6.32;;
46411;SDS011;32113;42.012;24.870;2023-04-10T07:37:01;7.22;;;5.65;;
46411;SDS011;32113;42.012;24.870;2023-04-10T07:39:27;7.05;;;5.20;;
46411;SDS011;32113;42.012;24.870;2023-04-10T07:41:52;7.75;;;6.28;;
46411;SDS011;32113;42.012;24.870;2023-04-10T07:44:19;18.75;;;8.40;;
46411;SDS011;32113;42.012;24.870;2023-04-10T07:46:44;16.73;;;7.85;;
46411;SDS011;32113;42.012;24.870;2023-04-10T07:49:10;9.20;;;6.10;;
46411;SDS011;32113;42.012;24.870;2023-04-10T07:51:36;14.20;;;6.80;;
46411;SDS011;32113;42.012;24.870;2023-04-10T07:54:02;8.95;;;4.00;;
46411;SDS011;32113;42.012;24.870;2023-04-10T07:56:28;7.43;;;4.95;;
46411;SDS011;32113;42.012;24.870;2023-04-10T07:58:57;5.82;;;4.55;;
46411;SDS011;32113;42.012;24.870;2023-04-10T08:01:23;27.00;;;5.95;;
46411;SDS011;32113;42.012;24.870;2023-04-10T08:03:50;14.48;;;4.32;;
46411;SDS011;32113;42.012;24.870;2023-04-10T08:06:15;6.80;;;5.20;;
46411;SDS011;32113;42.012;24.870;2023-04-10T08:08:41;6.80;;;5.00;;
46411;SDS011;32113;42.012;24.870;2023-04-10T08:11:20;7.13;;;4.90;;
46411;SDS011;32113;42.012;24.870;2023-04-10T08:13:47;7.68;;;3.85;;
46411;SDS011;32113;42.012;24.870;2023-04-10T08:16:13;5.70;;;3.92;;
46411;SDS011;32113;42.012;24.870;2023-04-10T08:18:38;7.22;;;3.90;;
46411;SDS011;32113;42.012;24.870;2023-04-10T08:21:04;10.82;;;4.78;;
46411;SDS011;32113;42.012;24.870;2023-04-10T08:23:30;5.35;;;3.15;;
46411;SDS011;32113;42.012;24.870;2023-04-10T08:25:55;7.95;;;3.50;;
46411;SDS011;32113;42.012;24.870;2023-04-10T08:28:21;5.13;;;3.60;;
46411;SDS011;32113;42.012;24.870;2023-04-10T08:30:46;8.43;;;4.60;;
46411;SDS011;32113;42.012;24.870;2023-04-10T08:33:12;3.83;;;2.95;;
46411;SDS011;32113;42.012;24.870;2023-04-10T08:35:37;5.95;;;3.80;;
46411;SDS011;32113;42.012;24.870;2023-04-10T08:38:02;4.07;;;2.80;;
46411;SDS011;32113;42.012;24.870;2023-04-10T08:40:28;5.30;;;3.78;;
46411;SDS011;32113;42.012;24.870;2023-04-10T08:42:53;6.72;;;3.33;;
46411;SDS011;32113;42.012;24.870;2023-04-10T08:45:19;8.93;;;3.97;;
46411;SDS011;32113;42.012;24.870;2023-04-10T08:47:44;5.93;;;4.15;;
46411;SDS011;32113;42.012;24.870;2023-04-10T08:50:13;8.20;;;4.35;;
46411;SDS011;32113;42.012;24.870;2023-04-10T08:52:41;8.03;;;4.37;;
46411;SDS011;32113;42.012;24.870;2023-04-10T08:55:10;11.70;;;4.45;;
46411;SDS011;32113;42.012;24.870;2023-04-10T08:57:37;6.30;;;3.78;;
46411;SDS011;32113;42.012;24.870;2023-04-10T09:00:02;5.82;;;4.15;;
46411;SDS011;32113;42.012;24.870;2023-04-10T09:02:28;9.45;;;4.15;;
46411;SDS011;32113;42.012;24.870;2023-04-10T09:04:54;7.45;;;4.60;;
46411;SDS011;32113;42.012;24.870;2023-04-10T09:07:23;6.65;;;4.00;;
46411;SDS011;32113;42.012;24.870;2023-04-10T09:09:48;6.22;;;4.30;;
46411;SDS011;32113;42.012;24.870;2023-04-10T09:12:13;6.75;;;4.55;;
46411;SDS011;32113;42.012;24.870;2023-04-10T09:14:41;4.80;;;4.00;;
46411;SDS011;32113;42.012;24.870;2023-04-10T09:17:22;4.82;;;3.80;;
46411;SDS011;32113;42.012;24.870;2023-04-10T09:19:49;5.32;;;3.63;;
46411;SDS011;32113;42.012;24.870;2023-04-10T09:22:29;6.28;;;3.30;;
46411;SDS011;32113;42.012;24.870;2023-04-10T09:24:56;5.15;;;3.67;;
46411;SDS011;32113;42.012;24.870;2023-04-10T09:27:33;7.10;;;4.20;;
46411;SDS011;32113;42.012;24.870;2023-04-10T09:35:04;5.60;;;3.95;;
46411;SDS011;32113;42.012;24.870;2023-04-10T09:37:34;7.53;;;3.67;;
46411;SDS011;32113;42.012;24.870;2023-04-10T09:40:00;7.10;;;3.72;;
46411;SDS011;32113;42.012;24.870;2023-04-10T09:44:54;5.75;;;3.63;;
46411;SDS011;32113;42.012;24.870;2023-04-10T09:47:20;4.78;;;4.00;;
46411;SDS011;32113;42.012;24.870;2023-04-10T09:49:47;4.65;;;3.70;;
46411;SDS011;32113;42.012;24.870;2023-04-10T09:52:26;4.13;;;3.30;;
46411;SDS011;32113;42.012;24.870;2023-04-10T09:54:53;6.63;;;3.65;;
46411;SDS011;32113;42.012;24.870;2023-04-10T09:57:24;9.27;;;6.60;;
46411;SDS011;32113;42.012;24.870;2023-04-10T09:59:53;9.40;;;6.18;;
46411;SDS011;32113;42.012;24.870;2023-04-10T10:02:21;6.85;;;5.20;;
46411;SDS011;32113;42.012;24.870;2023-04-10T10:04:48;11.65;;;5.57;;
46411;SDS011;32113;42.012;24.870;2023-04-10T10:07:15;5.15;;;3.95;;
46411;SDS011;32113;42.012;24.870;2023-04-10T10:09:44;5.97;;;4.00;;
46411;SDS011;32113;42.012;24.870;2023-04-10T10:12:11;9.25;;;4.20;;
46411;SDS011;32113;42.012;24.870;2023-04-10T10:14:40;5.65;;;4.00;;
46411;SDS011;32113;42.012;24.870;2023-04-10T10:17:12;4.45;;;3.25;;
46411;SDS011;32113;42.012;24.870;2023-04-10T10:19:44;9.73;;;4.75;;
46411;SDS011;32113;42.012;24.870;2023-04-10T10:22:32;6.57;;;4.20;;
46411;SDS011;32113;42.012;24.870;2023-04-10T10:24:59;4.60;;;3.85;;
46411;SDS011;32113;42.012;24.870;2023-04-10T10:27:27;5.90;;;4.43;;
46411;SDS011;32113;42.012;24.870;2023-04-10T10:29:55;8.02;;;4.05;;
46411;SDS011;32113;42.012;24.870;2023-04-10T10:32:24;8.20;;;4.35;;
46411;SDS011;32113;42.012;24.870;2023-04-10T10:34:51;5.20;;;4.03;;
46411;SDS011;32113;42.012;24.870;2023-04-10T10:37:18;5.68;;;3.90;;
46411;SDS011;32113;42.012;24.870;2023-04-10T10:45:28;4.55;;;3.65;;
46411;SDS011;32113;42.012;24.870;2023-04-10T10:47:56;7.00;;;4.13;;
46411;SDS011;32113;42.012;24.870;2023-04-10T10:50:22;6.18;;;3.97;;
46411;SDS011;32113;42.012;24.870;2023-04-10T10:52:51;8.82;;;3.47;;
46411;SDS011;32113;42.012;24.870;2023-04-10T10:57:47;5.22;;;3.95;;
46411;SDS011;32113;42.012;24.870;2023-04-10T11:00:14;6.47;;;3.97;;
46411;SDS011;32113;42.012;24.870;2023-04-10T11:02:40;5.82;;;4.03;;
46411;SDS011;32113;42.012;24.870;2023-04-10T11:05:06;4.63;;;3.70;;
46411;SDS011;32113;42.012;24.870;2023-04-10T11:13:33;5.93;;;4.22;;
46411;SDS011;32113;42.012;24.870;2023-04-10T11:16:00;7.47;;;4.13;;
46411;SDS011;32113;42.012;24.870;2023-04-10T11:21:17;8.55;;;4.47;;
46411;SDS011;32113;42.012;24.870;2023-04-10T11:28:57;7.18;;;4.28;;
46411;SDS011;32113;42.012;24.870;2023-04-10T11:31:23;4.93;;;3.72;;
46411;SDS011;32113;42.012;24.870;2023-04-10T11:36:21;6.47;;;4.70;;
46411;SDS011;32113;42.012;24.870;2023-04-10T11:38:57;7.15;;;4.47;;
46411;SDS011;32113;42.012;24.870;2023-04-10T11:41:30;6.68;;;4.38;;
46411;SDS011;32113;42.012;24.870;2023-04-10T11:43:57;7.40;;;4.50;;
46411;SDS011;32113;42.012;24.870;2023-04-10T11:46:24;4.60;;;3.78;;
46411;SDS011;32113;42.012;24.870;2023-04-10T11:48:57;10.48;;;4.15;;
46411;SDS011;32113;42.012;24.870;2023-04-10T11:51:24;6.85;;;4.35;;
46411;SDS011;32113;42.012;24.870;2023-04-10T11:54:02;5.22;;;3.72;;
46411;SDS011;32113;42.012;24.870;2023-04-10T11:56:42;4.90;;;3.65;;
46411;SDS011;32113;42.012;24.870;2023-04-10T11:59:09;9.68;;;4.30;;
46411;SDS011;32113;42.012;24.870;2023-04-10T12:04:03;8.75;;;5.10;;
46411;SDS011;32113;42.012;24.870;2023-04-10T12:06:47;5.63;;;4.45;;
46411;SDS011;32113;42.012;24.870;2023-04-10T12:09:17;5.17;;;4.17;;
46411;SDS011;32113;42.012;24.870;2023-04-10T12:14:39;8.73;;;3.97;;
46411;SDS011;32113;42.012;24.870;2023-04-10T12:17:06;7.35;;;4.18;;
46411;SDS011;32113;42.012;24.870;2023-04-10T12:19:33;5.22;;;4.20;;
46411;SDS011;32113;42.012;24.870;2023-04-10T12:22:00;5.25;;;4.15;;
46411;SDS011;32113;42.012;24.870;2023-04-10T12:24:44;5.70;;;3.72;;
46411;SDS011;32113;42.012;24.870;2023-04-10T12:27:21;4.20;;;3.72;;
46411;SDS011;32113;42.012;24.870;2023-04-10T12:29:51;9.20;;;5.28;;
46411;SDS011;32113;42.012;24.870;2023-04-10T12:32:18;6.40;;;4.67;;
46411;SDS011;32113;42.012;24.870;2023-04-10T12:34:51;6.55;;;4.80;;
46411;SDS011;32113;42.012;24.870;2023-04-10T12:37:18;4.78;;;4.00;;
46411;SDS011;32113;42.012;24.870;2023-04-10T12:39:45;4.82;;;3.85;;
46411;SDS011;32113;42.012;24.870;2023-04-10T12:44:53;5.93;;;3.97;;
46411;SDS011;32113;42.012;24.870;2023-04-10T12:47:20;6.47;;;5.20;;
46411;SDS011;32113;42.012;24.870;2023-04-10T12:50:20;10.68;;;6.85;;
46411;SDS011;32113;42.012;24.870;2023-04-10T12:52:43;9.00;;;6.18;;
46411;SDS011;32113;42.012;24.870;2023-04-10T12:57:40;6.03;;;4.32;;
46411;SDS011;32113;42.012;24.870;2023-04-10T13:00:06;5.50;;;3.90;;
46411;SDS011;32113;42.012;24.870;2023-04-10T13:02:36;5.00;;;3.97;;
46411;SDS011;32113;42.012;24.870;2023-04-10T13:05:05;9.07;;;4.93;;
46411;SDS011;32113;42.012;24.870;2023-04-10T13:07:32;6.55;;;4.60;;
46411;SDS011;32113;42.012;24.870;2023-04-10T13:09:58;5.18;;;3.85;;
46411;SDS011;32113;42.012;24.870;2023-04-10T13:12:24;5.10;;;3.67;;
46411;SDS011;32113;42.012;24.870;2023-04-10T13:14:50;4.97;;;3.72;;
46411;SDS011;32113;42.012;24.870;2023-04-10T13:17:18;4.53;;;3.60;;
46411;SDS011;32113;42.012;24.870;2023-04-10T13:19:44;4.75;;;3.75;;
46411;SDS011;32113;42.012;24.870;2023-04-10T13:22:10;5.63;;;4.20;;
46411;SDS011;32113;42.012;24.870;2023-04-10T13:24:35;4.18;;;3.65;;
46411;SDS011;32113;42.012;24.870;2023-04-10T13:27:01;9.60;;;4.47;;
46411;SDS011;32113;42.012;24.870;2023-04-10T13:29:26;4.57;;;3.65;;
46411;SDS011;32113;42.012;24.870;2023-04-10T13:31:52;7.70;;;3.97;;
46411;SDS011;32113;42.012;24.870;2023-04-10T13:34:18;4.55;;;3.75;;
46411;SDS011;32113;42.012;24.870;2023-04-10T13:36:43;7.45;;;4.18;;
46411;SDS011;32113;42.012;24.870;2023-04-10T13:39:09;6.30;;;4.18;;
46411;SDS011;32113;42.012;24.870;2023-04-10T13:41:34;5.68;;;3.90;;
46411;SDS011;32113;42.012;24.870;2023-04-10T13:43:59;6.07;;;4.47;;
46411;SDS011;32113;42.012;24.870;2023-04-10T13:46:25;5.80;;;4.72;;
46411;SDS011;32113;42.012;24.870;2023-04-10T13:48:50;6.82;;;5.13;;
46411;SDS011;32113;42.012;24.870;2023-04-10T13:51:16;6.72;;;4.85;;
46411;SDS011;32113;42.012;24.870;2023-04-10T13:53:41;8.00;;;5.65;;
46411;SDS011;32113;42.012;24.870;2023-04-10T13:56:07;9.60;;;5.65;;
46411;SDS011;32113;42.012;24.870;2023-04-10T13:58:33;7.80;;;5.10;;
46411;SDS011;32113;42.012;24.870;2023-04-10T14:00:58;6.60;;;5.03;;
46411;SDS011;32113;42.012;24.870;2023-04-10T14:03:25;6.05;;;4.18;;
46411;SDS011;32113;42.012;24.870;2023-04-10T14:05:50;5.78;;;4.20;;
46411;SDS011;32113;42.012;24.870;2023-04-10T14:08:16;7.65;;;5.53;;
46411;SDS011;32113;42.012;24.870;2023-04-10T14:10:42;6.28;;;5.03;;
46411;SDS011;32113;42.012;24.870;2023-04-10T14:13:09;6.40;;;4.80;;
46411;SDS011;32113;42.012;24.870;2023-04-10T14:15:35;8.00;;;5.93;;
46411;SDS011;32113;42.012;24.870;2023-04-10T14:18:01;9.93;;;5.82;;
46411;SDS011;32113;42.012;24.870;2023-04-10T14:20:26;6.20;;;4.50;;
46411;SDS011;32113;42.012;24.870;2023-04-10T14:22:52;5.60;;;3.97;;
46411;SDS011;32113;42.012;24.870;2023-04-10T14:25:17;8.32;;;4.43;;
46411;SDS011;32113;42.012;24.870;2023-04-10T14:27:42;5.78;;;4.50;;
46411;SDS011;32113;42.012;24.870;2023-04-10T14:30:08;7.13;;;4.75;;
46411;SDS011;32113;42.012;24.870;2023-04-10T14:32:34;8.68;;;6.07;;
46411;SDS011;32113;42.012;24.870;2023-04-10T14:35:00;6.32;;;4.88;;
46411;SDS011;32113;42.012;24.870;2023-04-10T14:37:25;7.45;;;5.10;;
46411;SDS011;32113;42.012;24.870;2023-04-10T14:39:51;8.15;;;5.55;;
46411;SDS011;32113;42.012;24.870;2023-04-10T14:42:16;8.15;;;6.13;;
46411;SDS011;32113;42.012;24.870;2023-04-10T14:44:41;7.95;;;5.35;;
46411;SDS011;32113;42.012;24.870;2023-04-10T14:47:07;8.10;;;5.20;;
46411;SDS011;32113;42.012;24.870;2023-04-10T14:49:32;8.93;;;6.18;;
46411;SDS011;32113;42.012;24.870;2023-04-10T14:51:58;10.32;;;6.95;;
46411;SDS011;32113;42.012;24.870;2023-04-10T14:54:23;9.27;;;6.70;;
46411;SDS011;32113;42.012;24.870;2023-04-10T14:56:49;9.77;;;6.47;;
46411;SDS011;32113;42.012;24.870;2023-04-10T14:59:15;8.73;;;5.80;;
46411;SDS011;32113;42.012;24.870;2023-04-10T15:01:41;10.68;;;7.00;;
46411;SDS011;32113;42.012;24.870;2023-04-10T15:04:07;8.18;;;6.80;;
46411;SDS011;32113;42.012;24.870;2023-04-10T15:06:32;8.57;;;6.35;;
46411;SDS011;32113;42.012;24.870;2023-04-10T15:09:05;5.63;;;4.85;;
46411;SDS011;32113;42.012;24.870;2023-04-10T15:11:31;5.82;;;4.60;;
46411;SDS011;32113;42.012;24.870;2023-04-10T15:13:59;7.28;;;4.90;;
46411;SDS011;32113;42.012;24.870;2023-04-10T15:16:26;6.45;;;5.45;;
46411;SDS011;32113;42.012;24.870;2023-04-10T15:18:51;7.82;;;5.80;;
46411;SDS011;32113;42.012;24.870;2023-04-10T15:21:17;8.45;;;7.30;;
46411;SDS011;32113;42.012;24.870;2023-04-10T15:23:42;9.90;;;8.88;;
46411;SDS011;32113;42.012;24.870;2023-04-10T15:26:11;12.43;;;9.60;;
46411;SDS011;32113;42.012;24.870;2023-04-10T15:28:40;11.70;;;10.50;;
46411;SDS011;32113;42.012;24.870;2023-04-10T15:31:07;8.68;;;7.53;;